Time;durP1;ratioP1;P1;durP2;ratioP2;P2;SDS_P1;SDS_P2;PMS_P1;PMS_P2;Temp;Humidity;BMP_temperature;BMP_pressure;BME280_temperature;BME280_humidity;BME280_pressure;Samples;Min_cycle;Max_cycle;Signal;HPM_P1;HPM_P2
2022/04/05 00:01:34;;;;;;;19.95;4.20;;;;;;;;;;5004071;28;20451;-84
2022/04/05 00:04:00;;;;;;;14.57;3.60;;;;;;;;;;5003079;28;20471;-84
2022/04/05 00:06:28;;;;;;;15.55;3.70;;;;;;;;;;5003015;28;20462;-84
2022/04/05 00:08:54;;;;;;;14.40;4.72;;;;;;;;;;5001677;28;20421;-84
2022/04/05 00:11:20;;;;;;;15.95;5.60;;;;;;;;;;5003633;28;20438;-84
2022/04/05 00:13:46;;;;;;;19.60;4.97;;;;;;;;;;4999918;28;20421;-84
2022/04/05 00:16:12;;;;;;;9.95;3.60;;;;;;;;;;5002835;28;20486;-84
2022/04/05 00:18:39;;;;;;;11.77;3.70;;;;;;;;;;5001594;28;20481;-84
2022/04/05 00:21:05;;;;;;;16.00;4.70;;;;;;;;;;5001180;28;20443;-84
2022/04/05 00:23:33;;;;;;;12.23;3.83;;;;;;;;;;5002846;28;20449;-84
2022/04/05 00:25:59;;;;;;;15.43;4.93;;;;;;;;;;5000244;28;20463;-84
2022/04/05 00:28:26;;;;;;;16.70;4.90;;;;;;;;;;4999627;28;20432;-84
2022/04/05 00:30:52;;;;;;;14.02;5.00;;;;;;;;;;5002697;28;20922;-84
2022/04/05 00:33:18;;;;;;;20.88;4.97;;;;;;;;;;5002493;28;20438;-85
2022/04/05 00:35:44;;;;;;;12.50;4.97;;;;;;;;;;5001965;28;20463;-82
2022/04/05 00:38:10;;;;;;;17.40;4.47;;;;;;;;;;5002249;28;20492;-83
2022/04/05 00:40:38;;;;;;;14.00;4.97;;;;;;;;;;5002494;28;20463;-84
2022/04/05 00:43:05;;;;;;;18.85;6.72;;;;;;;;;;5001620;28;20440;-83
2022/04/05 00:45:32;;;;;;;20.38;7.20;;;;;;;;;;5001335;28;20934;-82
2022/04/05 00:47:59;;;;;;;17.73;6.22;;;;;;;;;;5001694;28;20444;-83
2022/04/05 00:50:27;;;;;;;18.38;5.78;;;;;;;;;;5000083;28;20440;-85
2022/04/05 00:52:53;;;;;;;14.52;4.72;;;;;;;;;;5002440;28;20517;-84
2022/04/05 00:55:21;;;;;;;13.35;4.93;;;;;;;;;;5001822;28;20506;-84
2022/04/05 00:57:49;;;;;;;18.55;4.80;;;;;;;;;;5001522;28;20432;-84
2022/04/05 01:00:16;;;;;;;19.15;4.13;;;;;;;;;;4997343;28;20464;-83
2022/04/05 01:02:44;;;;;;;12.68;3.40;;;;;;;;;;4999734;28;21021;-83
2022/04/05 01:05:10;;;;;;;15.02;4.30;;;;;;;;;;5001103;28;20494;-84
2022/04/05 01:07:40;;;;;;;22.25;4.50;;;;;;;;;;5000786;28;20932;-83
2022/04/05 01:10:07;;;;;;;14.88;4.38;;;;;;;;;;4999710;28;20906;-83
2022/04/05 01:12:33;;;;;;;20.85;5.20;;;;;;;;;;4999871;28;20488;-84
2022/04/05 01:15:01;;;;;;;14.60;3.38;;;;;;;;;;5001032;28;20434;-84
2022/04/05 01:17:27;;;;;;;21.35;4.20;;;;;;;;;;4999898;28;20438;-83
2022/04/05 01:19:53;;;;;;;13.80;3.90;;;;;;;;;;5000755;28;20433;-84
2022/04/05 01:22:21;;;;;;;15.40;3.40;;;;;;;;;;5001408;28;21185;-84
2022/04/05 01:24:49;;;;;;;16.10;3.70;;;;;;;;;;5000991;28;20884;-84
2022/04/05 01:27:18;;;;;;;18.23;4.22;;;;;;;;;;4998859;28;20467;-83
2022/04/05 01:29:44;;;;;;;16.70;3.33;;;;;;;;;;5000506;28;20789;-82
2022/04/05 01:32:11;;;;;;;12.70;3.28;;;;;;;;;;5000039;28;20422;-84
2022/04/05 01:34:38;;;;;;;9.75;2.78;;;;;;;;;;4999230;28;20433;-83
2022/04/05 01:37:05;;;;;;;14.23;2.70;;;;;;;;;;5001384;28;20451;-83
2022/04/05 01:39:32;;;;;;;14.80;3.13;;;;;;;;;;4997919;28;20434;-83
2022/04/05 01:42:01;;;;;;;17.95;3.05;;;;;;;;;;4999771;28;20814;-84
2022/04/05 01:44:28;;;;;;;10.65;2.58;;;;;;;;;;4999835;28;20433;-84
2022/04/05 01:46:54;;;;;;;10.38;2.85;;;;;;;;;;5000302;28;20441;-84
2022/04/05 01:49:21;;;;;;;14.10;3.00;;;;;;;;;;5001359;28;20457;-83
2022/04/05 01:51:47;;;;;;;9.52;2.53;;;;;;;;;;4999974;28;20436;-84
2022/04/05 01:54:14;;;;;;;13.32;2.83;;;;;;;;;;5000018;28;20436;-84
2022/04/05 01:56:41;;;;;;;11.00;2.90;;;;;;;;;;5001980;28;20523;-84
2022/04/05 01:59:09;;;;;;;15.40;4.10;;;;;;;;;;4998429;28;21181;-84
2022/04/05 02:01:35;;;;;;;17.47;3.00;;;;;;;;;;5001122;28;20558;-83
2022/04/05 02:04:02;;;;;;;15.75;3.75;;;;;;;;;;5000639;28;20469;-85
2022/04/05 02:06:28;;;;;;;12.18;3.90;;;;;;;;;;5001024;28;20430;-84
2022/04/05 02:08:55;;;;;;;11.02;3.30;;;;;;;;;;4998501;28;20480;-83
2022/04/05 02:11:22;;;;;;;12.93;3.67;;;;;;;;;;4998552;28;20537;-84
2022/04/05 02:13:49;;;;;;;10.13;3.63;;;;;;;;;;4998897;28;20417;-84
2022/04/05 02:16:16;;;;;;;14.68;3.60;;;;;;;;;;4999207;28;20422;-84
2022/04/05 02:18:43;;;;;;;10.25;2.80;;;;;;;;;;4997671;28;20479;-84
2022/04/05 02:21:09;;;;;;;9.50;2.90;;;;;;;;;;4998173;28;20923;-83
2022/04/05 02:23:35;;;;;;;10.80;2.90;;;;;;;;;;4999662;28;20430;-83
2022/04/05 02:26:01;;;;;;;12.10;2.40;;;;;;;;;;4999623;28;20467;-83
2022/04/05 02:28:28;;;;;;;10.48;2.78;;;;;;;;;;4996397;28;20496;-84
2022/04/05 02:30:54;;;;;;;11.63;2.80;;;;;;;;;;4999846;28;20520;-83
2022/04/05 02:33:22;;;;;;;6.72;2.47;;;;;;;;;;5001240;28;20433;-83
2022/04/05 02:35:48;;;;;;;13.77;2.80;;;;;;;;;;4999770;28;20486;-83
2022/04/05 02:38:15;;;;;;;10.68;2.75;;;;;;;;;;4998927;28;20438;-84
2022/04/05 02:40:41;;;;;;;11.45;2.72;;;;;;;;;;4999115;28;20990;-83
2022/04/05 02:43:07;;;;;;;15.57;2.90;;;;;;;;;;4998934;28;20489;-84
2022/04/05 02:45:33;;;;;;;9.60;3.03;;;;;;;;;;4998700;28;21139;-84
2022/04/05 02:48:00;;;;;;;13.00;2.80;;;;;;;;;;4998898;28;20442;-82
2022/04/05 02:50:27;;;;;;;10.97;3.10;;;;;;;;;;4996755;28;20562;-83
2022/04/05 02:52:53;;;;;;;12.45;2.90;;;;;;;;;;4997929;28;20500;-84
2022/04/05 02:55:20;;;;;;;9.18;2.53;;;;;;;;;;4999580;28;20436;-83
2022/04/05 02:57:46;;;;;;;9.40;2.78;;;;;;;;;;4998740;28;20437;-83
2022/04/05 03:00:13;;;;;;;9.32;2.33;;;;;;;;;;4997665;28;20516;-84
2022/04/05 03:02:40;;;;;;;7.70;2.80;;;;;;;;;;4998138;28;20427;-84
2022/04/05 03:05:07;;;;;;;13.55;2.83;;;;;;;;;;4997535;28;20632;-83
2022/04/05 03:07:35;;;;;;;10.95;2.95;;;;;;;;;;4999645;28;20438;-81
2022/04/05 03:10:01;;;;;;;8.98;2.80;;;;;;;;;;4997659;28;20425;-84
2022/04/05 03:12:28;;;;;;;11.65;2.85;;;;;;;;;;4998159;28;20438;-84
2022/04/05 03:14:54;;;;;;;13.88;3.05;;;;;;;;;;4998220;28;20425;-84
2022/04/05 03:17:20;;;;;;;10.30;2.60;;;;;;;;;;4996839;28;20445;-83
2022/04/05 03:19:46;;;;;;;9.27;2.78;;;;;;;;;;4998089;28;20432;-84
2022/04/05 03:22:12;;;;;;;9.63;2.63;;;;;;;;;;4998429;28;20494;-84
2022/04/05 03:24:40;;;;;;;9.75;2.67;;;;;;;;;;5002758;28;20431;-83
2022/04/05 03:27:06;;;;;;;14.15;3.47;;;;;;;;;;5002134;28;20497;-84
2022/04/05 03:29:32;;;;;;;13.75;2.80;;;;;;;;;;5001249;28;20425;-84
2022/04/05 03:31:59;;;;;;;8.65;2.90;;;;;;;;;;5000916;28;20988;-84
2022/04/05 03:34:25;;;;;;;14.60;3.47;;;;;;;;;;5000897;28;20424;-84
2022/04/05 03:36:51;;;;;;;12.32;2.47;;;;;;;;;;5001797;28;20482;-83
2022/04/05 03:39:17;;;;;;;9.70;3.10;;;;;;;;;;5002358;28;20433;-84
2022/04/05 03:41:45;;;;;;;11.02;3.20;;;;;;;;;;5002601;28;20438;-83
2022/04/05 03:44:11;;;;;;;13.30;3.80;;;;;;;;;;5003340;28;20432;-83
2022/04/05 03:46:38;;;;;;;12.60;4.30;;;;;;;;;;5002299;28;20463;-83
2022/04/05 03:49:04;;;;;;;9.70;3.40;;;;;;;;;;5001148;28;20494;-83
2022/04/05 03:51:30;;;;;;;14.52;3.50;;;;;;;;;;5002629;28;20459;-83
2022/04/05 03:53:57;;;;;;;17.38;4.05;;;;;;;;;;5002905;28;20483;-83
2022/04/05 03:56:23;;;;;;;12.23;3.38;;;;;;;;;;5002732;28;20473;-83
2022/04/05 03:58:51;;;;;;;13.55;3.47;;;;;;;;;;5001207;28;20479;-84
2022/04/05 04:01:17;;;;;;;12.10;3.22;;;;;;;;;;5001656;28;20437;-82
2022/04/05 04:03:44;;;;;;;11.57;3.30;;;;;;;;;;5000050;28;20426;-84
2022/04/05 04:06:10;;;;;;;12.20;3.10;;;;;;;;;;5003662;28;20465;-83
2022/04/05 04:08:36;;;;;;;11.63;3.10;;;;;;;;;;5002211;28;20977;-84
2022/04/05 04:11:03;;;;;;;10.70;2.80;;;;;;;;;;5000893;28;20438;-83
2022/04/05 04:13:29;;;;;;;10.68;2.70;;;;;;;;;;5002099;28;20430;-83
2022/04/05 04:15:57;;;;;;;11.75;3.05;;;;;;;;;;5002828;28;20428;-83
2022/04/05 04:18:23;;;;;;;12.35;3.10;;;;;;;;;;5000471;28;20440;-83
2022/04/05 04:20:49;;;;;;;12.45;3.70;;;;;;;;;;5002557;28;20436;-83
2022/04/05 04:23:16;;;;;;;15.85;4.88;;;;;;;;;;5001795;28;20441;-83
2022/04/05 04:25:42;;;;;;;15.00;5.50;;;;;;;;;;5000555;28;20497;-83
2022/04/05 04:28:10;;;;;;;12.67;5.47;;;;;;;;;;5015371;23;20514;-81
2022/04/05 04:30:37;;;;;;;17.20;7.27;;;;;;;;;;4984664;28;20446;-82
2022/04/05 04:33:05;;;;;;;17.35;8.10;;;;;;;;;;4987067;28;20461;-82
2022/04/05 04:35:31;;;;;;;17.40;9.48;;;;;;;;;;4986309;28;20497;-80
2022/04/05 04:37:58;;;;;;;21.27;7.88;;;;;;;;;;4987833;28;20484;-81
2022/04/05 04:40:25;;;;;;;15.45;6.47;;;;;;;;;;5003944;28;20424;-82
2022/04/05 04:42:51;;;;;;;12.45;4.70;;;;;;;;;;5003348;28;20440;-80
2022/04/05 04:45:17;;;;;;;18.10;4.15;;;;;;;;;;5006220;28;20481;-81
2022/04/05 04:47:44;;;;;;;14.88;3.95;;;;;;;;;;5007732;28;20817;-79
2022/04/05 04:50:12;;;;;;;17.13;4.40;;;;;;;;;;5005076;28;20542;-83
2022/04/05 04:52:38;;;;;;;8.93;3.23;;;;;;;;;;5005303;28;20479;-81
2022/04/05 04:55:05;;;;;;;14.35;3.70;;;;;;;;;;5007097;28;21210;-80
2022/04/05 04:57:31;;;;;;;14.82;3.47;;;;;;;;;;5004874;28;20438;-81
2022/04/05 04:59:57;;;;;;;20.67;3.83;;;;;;;;;;5001984;28;20492;-82
2022/04/05 05:02:24;;;;;;;11.57;3.50;;;;;;;;;;5004349;28;20433;-83
2022/04/05 05:04:50;;;;;;;13.95;3.17;;;;;;;;;;5004181;28;20927;-83
2022/04/05 05:07:18;;;;;;;10.68;3.08;;;;;;;;;;5004723;28;20418;-82
2022/04/05 05:09:44;;;;;;;8.45;2.70;;;;;;;;;;5000165;28;20440;-81
2022/04/05 05:12:11;;;;;;;14.57;3.97;;;;;;;;;;5003327;28;20431;-82
2022/04/05 05:14:37;;;;;;;15.52;3.15;;;;;;;;;;5002262;28;20425;-83
2022/04/05 05:17:04;;;;;;;14.65;3.50;;;;;;;;;;5004600;28;20445;-84
2022/04/05 05:19:30;;;;;;;12.20;3.20;;;;;;;;;;5001168;28;20913;-83
2022/04/05 05:21:56;;;;;;;14.90;3.40;;;;;;;;;;5003495;28;20436;-82
2022/04/05 05:24:24;;;;;;;12.40;2.80;;;;;;;;;;4998830;28;20438;-83
2022/04/05 05:26:50;;;;;;;14.57;3.42;;;;;;;;;;5001530;28;20438;-82
2022/04/05 05:29:16;;;;;;;11.02;2.60;;;;;;;;;;4999397;28;20441;-82
2022/04/05 05:31:43;;;;;;;11.25;2.78;;;;;;;;;;5002056;28;20433;-82
2022/04/05 05:34:09;;;;;;;14.32;4.22;;;;;;;;;;5002540;28;20444;-82
2022/04/05 05:36:35;;;;;;;10.60;3.10;;;;;;;;;;5002674;28;20430;-81
2022/04/05 05:39:02;;;;;;;16.73;3.30;;;;;;;;;;5000058;28;20428;-83
2022/04/05 05:41:30;;;;;;;11.33;3.03;;;;;;;;;;4998320;28;20440;-81
2022/04/05 05:43:56;;;;;;;14.02;3.33;;;;;;;;;;4998264;28;20432;-83
2022/04/05 05:46:22;;;;;;;12.77;3.30;;;;;;;;;;5001103;28;20498;-83
2022/04/05 05:48:49;;;;;;;18.92;4.20;;;;;;;;;;4998638;28;20425;-83
2022/04/05 05:51:15;;;;;;;10.15;2.97;;;;;;;;;;5003395;28;20418;-83
2022/04/05 05:53:41;;;;;;;8.68;2.78;;;;;;;;;;5000589;28;20430;-83
2022/04/05 05:56:07;;;;;;;12.38;3.17;;;;;;;;;;5001699;28;20489;-83
2022/04/05 05:58:35;;;;;;;16.88;3.28;;;;;;;;;;4998714;28;20432;-83
2022/04/05 06:01:01;;;;;;;13.55;3.20;;;;;;;;;;5000336;28;20448;-83
2022/04/05 06:03:28;;;;;;;17.20;3.45;;;;;;;;;;5002994;28;20483;-84
2022/04/05 06:05:54;;;;;;;11.50;2.90;;;;;;;;;;5000857;28;20456;-83
2022/04/05 06:08:21;;;;;;;21.02;3.95;;;;;;;;;;5001740;28;20446;-84
2022/04/05 06:10:47;;;;;;;12.10;3.70;;;;;;;;;;5004709;28;20434;-82
2022/04/05 06:13:13;;;;;;;17.02;3.92;;;;;;;;;;5001469;28;20432;-82
2022/04/05 06:15:41;;;;;;;10.73;3.28;;;;;;;;;;5001612;28;20428;-83
2022/04/05 06:18:07;;;;;;;17.05;4.30;;;;;;;;;;5000502;28;20437;-83
2022/04/05 06:20:33;;;;;;;15.32;3.78;;;;;;;;;;5003103;28;20425;-82
2022/04/05 06:23:00;;;;;;;9.63;3.47;;;;;;;;;;5002716;28;21046;-84
2022/04/05 06:25:28;;;;;;;13.90;3.40;;;;;;;;;;5001838;28;20501;-82
2022/04/05 06:27:54;;;;;;;11.80;3.03;;;;;;;;;;5001198;28;20440;-83
2022/04/05 06:30:20;;;;;;;16.88;3.92;;;;;;;;;;5002911;28;20838;-84
2022/04/05 06:32:48;;;;;;;11.98;3.42;;;;;;;;;;5004154;28;20430;-84
2022/04/05 06:35:15;;;;;;;14.47;3.53;;;;;;;;;;5002107;28;20938;-83
2022/04/05 06:37:43;;;;;;;12.45;3.40;;;;;;;;;;5003064;28;20901;-82
2022/04/05 06:40:10;;;;;;;17.80;4.07;;;;;;;;;;5002019;28;20452;-81
2022/04/05 06:42:41;;;;;;;12.73;3.60;;;;;;;;;;5002757;28;20442;-83
2022/04/05 06:45:08;;;;;;;16.02;3.42;;;;;;;;;;5003370;28;20437;-83
2022/04/05 06:47:34;;;;;;;13.75;4.20;;;;;;;;;;5002266;28;20897;-83
2022/04/05 06:50:03;;;;;;;17.20;4.47;;;;;;;;;;5002460;28;20418;-81
2022/04/05 06:52:29;;;;;;;17.02;4.15;;;;;;;;;;5002631;28;20448;-83
2022/04/05 06:54:55;;;;;;;14.25;3.50;;;;;;;;;;5002582;28;20428;-84
2022/04/05 06:57:21;;;;;;;12.73;3.72;;;;;;;;;;5001333;28;20498;-83
2022/04/05 06:59:48;;;;;;;14.93;3.83;;;;;;;;;;5005628;28;20436;-84
2022/04/05 07:02:15;;;;;;;11.57;3.40;;;;;;;;;;5005808;28;20956;-85
2022/04/05 07:04:41;;;;;;;16.13;3.60;;;;;;;;;;5005313;28;20934;-85
2022/04/05 07:07:08;;;;;;;16.60;4.05;;;;;;;;;;5006114;28;20436;-85
2022/04/05 07:09:35;;;;;;;12.95;4.00;;;;;;;;;;5005511;28;20497;-84
2022/04/05 07:12:01;;;;;;;13.85;3.38;;;;;;;;;;5006129;28;20433;-83
2022/04/05 07:14:27;;;;;;;16.13;3.67;;;;;;;;;;5007306;28;20418;-82
2022/04/05 07:16:54;;;;;;;12.53;3.70;;;;;;;;;;5008193;28;20440;-84
2022/04/05 07:19:20;;;;;;;19.83;4.00;;;;;;;;;;5006054;28;20837;-85
2022/04/05 07:21:46;;;;;;;13.30;3.30;;;;;;;;;;5006208;28;20432;-85
2022/04/05 07:24:14;;;;;;;18.73;3.78;;;;;;;;;;5007813;28;20488;-84
2022/04/05 07:26:40;;;;;;;14.77;3.80;;;;;;;;;;5007621;28;20420;-84
2022/04/05 07:29:06;;;;;;;16.48;4.07;;;;;;;;;;5004235;28;20420;-85
2022/04/05 07:31:32;;;;;;;10.63;3.55;;;;;;;;;;5007073;28;20851;-85
2022/04/05 07:33:59;;;;;;;16.40;4.00;;;;;;;;;;5009572;28;20848;-83
2022/04/05 07:36:25;;;;;;;13.70;3.30;;;;;;;;;;5009595;28;20876;-82
2022/04/05 07:38:52;;;;;;;8.90;3.80;;;;;;;;;;5009174;28;20422;-85
2022/04/05 07:41:20;;;;;;;14.77;3.90;;;;;;;;;;5007240;28;20437;-83
2022/04/05 07:43:46;;;;;;;9.93;3.07;;;;;;;;;;5008348;28;20513;-84
2022/04/05 07:46:13;;;;;;;15.73;3.28;;;;;;;;;;5007997;28;20608;-83
2022/04/05 07:48:39;;;;;;;14.48;3.55;;;;;;;;;;5008753;28;20424;-83
2022/04/05 07:51:06;;;;;;;18.40;3.20;;;;;;;;;;5011164;28;20484;-84
2022/04/05 07:53:32;;;;;;;14.32;3.40;;;;;;;;;;5010191;28;20424;-85
2022/04/05 07:55:59;;;;;;;12.70;3.13;;;;;;;;;;5009904;28;20849;-83
2022/04/05 07:58:26;;;;;;;14.10;3.50;;;;;;;;;;5008531;28;20441;-85
2022/04/05 08:00:53;;;;;;;16.15;4.40;;;;;;;;;;5010013;28;20421;-84
2022/04/05 08:03:19;;;;;;;13.18;3.40;;;;;;;;;;5008289;28;20430;-85
2022/04/05 08:05:46;;;;;;;14.52;3.40;;;;;;;;;;5007940;28;20429;-82
2022/04/05 08:08:12;;;;;;;20.73;4.13;;;;;;;;;;5007836;28;20436;-84
2022/04/05 08:10:38;;;;;;;14.77;3.50;;;;;;;;;;5009453;28;20438;-82
2022/04/05 08:13:05;;;;;;;17.60;4.40;;;;;;;;;;5008717;28;20583;-84
2022/04/05 08:15:32;;;;;;;13.10;3.20;;;;;;;;;;5003714;28;20421;-83
2022/04/05 08:17:59;;;;;;;16.15;3.35;;;;;;;;;;5003154;28;20959;-81
2022/04/05 08:20:26;;;;;;;14.88;3.70;;;;;;;;;;5003719;28;20448;-82
2022/04/05 08:22:52;;;;;;;12.02;3.30;;;;;;;;;;5004063;28;20442;-83
2022/04/05 08:25:19;;;;;;;16.60;3.50;;;;;;;;;;5002930;28;20436;-83
2022/04/05 08:27:46;;;;;;;13.55;3.58;;;;;;;;;;4999676;28;20454;-83
2022/04/05 08:30:15;;;;;;;16.23;3.20;;;;;;;;;;5002089;28;20429;-82
2022/04/05 08:32:43;;;;;;;11.50;3.70;;;;;;;;;;5003266;28;20426;-83
2022/04/05 08:35:11;;;;;;;9.00;3.15;;;;;;;;;;5001590;28;20426;-83
2022/04/05 08:37:37;;;;;;;15.75;3.60;;;;;;;;;;5002325;28;20442;-83
2022/04/05 08:40:06;;;;;;;11.18;3.10;;;;;;;;;;5003053;28;20844;-83
2022/04/05 08:42:32;;;;;;;12.80;3.15;;;;;;;;;;5002020;28;20428;-84
2022/04/05 08:45:00;;;;;;;10.70;2.53;;;;;;;;;;5002059;28;20491;-82
2022/04/05 08:47:26;;;;;;;9.45;2.42;;;;;;;;;;5002644;28;20437;-83
2022/04/05 08:49:54;;;;;;;12.13;2.95;;;;;;;;;;5001807;28;20840;-82
2022/04/05 08:52:20;;;;;;;15.30;3.53;;;;;;;;;;5003444;28;20416;-85
2022/04/05 08:54:46;;;;;;;16.58;2.78;;;;;;;;;;5002318;28;20793;-82
2022/04/05 08:57:12;;;;;;;10.90;3.08;;;;;;;;;;5000589;28;20519;-83
2022/04/05 08:59:39;;;;;;;10.50;2.70;;;;;;;;;;5000719;28;20421;-84
2022/04/05 09:02:05;;;;;;;12.48;3.25;;;;;;;;;;5001762;28;20441;-84
2022/04/05 09:04:32;;;;;;;13.15;2.50;;;;;;;;;;5002031;28;20434;-83
2022/04/05 09:07:17;;;;;;;9.98;2.45;;;;;;;;;;5001503;28;20560;-83
2022/04/05 09:09:44;;;;;;;6.43;2.10;;;;;;;;;;5000501;28;20488;-81
2022/04/05 09:12:16;;;;;;;8.13;2.33;;;;;;;;;;5000271;28;20448;-84
2022/04/05 09:14:43;;;;;;;12.15;3.00;;;;;;;;;;5001484;28;20430;-82
2022/04/05 09:17:09;;;;;;;7.78;3.20;;;;;;;;;;5000460;28;20441;-83
2022/04/05 09:19:37;;;;;;;12.43;3.50;;;;;;;;;;4999964;28;20770;-83
2022/04/05 09:22:05;;;;;;;10.73;2.97;;;;;;;;;;5000392;28;20547;-83
2022/04/05 09:24:33;;;;;;;11.45;3.70;;;;;;;;;;5001349;28;20914;-83
2022/04/05 09:26:59;;;;;;;10.30;2.70;;;;;;;;;;5001279;28;20712;-84
2022/04/05 09:29:37;;;;;;;7.50;2.73;;;;;;;;;;5000896;28;20422;-83
2022/04/05 09:32:03;;;;;;;12.77;3.20;;;;;;;;;;5002950;28;20419;-82
2022/04/05 09:34:30;;;;;;;13.30;2.88;;;;;;;;;;5002211;28;20479;-83
2022/04/05 09:36:56;;;;;;;9.52;2.50;;;;;;;;;;5001066;28;20446;-83
2022/04/05 09:39:25;;;;;;;9.18;2.63;;;;;;;;;;5001728;28;20422;-83
2022/04/05 09:41:59;;;;;;;11.23;2.70;;;;;;;;;;5002333;28;20424;-83
2022/04/05 09:44:27;;;;;;;10.07;2.83;;;;;;;;;;5001873;28;20431;-83
2022/04/05 09:47:02;;;;;;;7.88;2.60;;;;;;;;;;5001392;28;20426;-84
2022/04/05 09:49:30;;;;;;;11.67;2.87;;;;;;;;;;4998774;28;20543;-84
2022/04/05 09:51:57;;;;;;;7.97;2.60;;;;;;;;;;5001660;28;20447;-83
2022/04/05 09:54:28;;;;;;;9.85;2.50;;;;;;;;;;5002875;28;20842;-83
2022/04/05 09:56:59;;;;;;;7.53;2.60;;;;;;;;;;5003023;28;20632;-82
2022/04/05 09:59:26;;;;;;;8.07;2.25;;;;;;;;;;5001122;28;20475;-83
2022/04/05 10:01:56;;;;;;;11.27;2.50;;;;;;;;;;5002159;28;20418;-82
2022/04/05 10:04:23;;;;;;;7.30;2.10;;;;;;;;;;4999691;28;20425;-83
2022/04/05 10:06:49;;;;;;;7.95;2.30;;;;;;;;;;4999837;28;20987;-82
2022/04/05 10:09:17;;;;;;;8.38;2.53;;;;;;;;;;4998508;28;20481;-83
2022/04/05 10:11:45;;;;;;;7.97;3.00;;;;;;;;;;5001215;28;20488;-83
2022/04/05 10:14:13;;;;;;;9.98;2.60;;;;;;;;;;4999861;28;20425;-81
2022/04/05 10:16:39;;;;;;;7.60;2.67;;;;;;;;;;5002108;28;20469;-82
2022/04/05 10:19:06;;;;;;;11.95;3.30;;;;;;;;;;4998955;28;20851;-82
2022/04/05 10:21:34;;;;;;;11.00;3.28;;;;;;;;;;5000902;28;20870;-82
2022/04/05 10:24:01;;;;;;;11.95;2.75;;;;;;;;;;5000217;28;20459;-82
2022/04/05 10:26:28;;;;;;;12.45;3.50;;;;;;;;;;5001805;28;20482;-82
2022/04/05 10:28:57;;;;;;;8.30;2.80;;;;;;;;;;5014744;23;20474;-83
2022/04/05 10:31:25;;;;;;;12.63;3.30;;;;;;;;;;5000859;28;20449;-83
2022/04/05 10:33:55;;;;;;;11.63;3.35;;;;;;;;;;5005154;28;20412;-83
2022/04/05 10:36:22;;;;;;;10.55;2.90;;;;;;;;;;5004250;28;20466;-83
2022/04/05 10:39:03;;;;;;;12.90;3.13;;;;;;;;;;5003669;28;20423;-83
2022/04/05 10:41:30;;;;;;;9.57;2.90;;;;;;;;;;4999516;28;20478;-81
2022/04/05 10:44:11;;;;;;;10.20;2.40;;;;;;;;;;5002120;28;20419;-83
2022/04/05 10:46:45;;;;;;;8.65;2.70;;;;;;;;;;5002521;28;20498;-83
2022/04/05 10:49:11;;;;;;;8.70;2.90;;;;;;;;;;5002431;28;20428;-83
2022/04/05 10:52:02;;;;;;;10.65;2.70;;;;;;;;;;5005378;28;20476;-83
2022/04/05 10:54:35;;;;;;;5.03;2.17;;;;;;;;;;5004483;28;20493;-83
2022/04/05 10:57:17;;;;;;;8.23;3.00;;;;;;;;;;5002612;28;20436;-83
2022/04/05 10:59:48;;;;;;;9.65;3.10;;;;;;;;;;5002511;28;20434;-83
2022/04/05 11:02:35;;;;;;;8.93;2.90;;;;;;;;;;5001984;28;20944;-84
2022/04/05 11:05:04;;;;;;;7.70;3.00;;;;;;;;;;4998894;28;20962;-83
2022/04/05 11:07:54;;;;;;;9.40;4.03;;;;;;;;;;5004914;28;20488;-83
2022/04/05 11:10:21;;;;;;;7.45;3.50;;;;;;;;;;5003148;28;20426;-83
2022/04/05 11:12:47;;;;;;;9.73;3.88;;;;;;;;;;5002089;28;20418;-83
2022/04/05 11:15:15;;;;;;;9.35;3.70;;;;;;;;;;5004145;28;20418;-83
2022/04/05 11:17:42;;;;;;;7.70;3.45;;;;;;;;;;5003473;28;20421;-83
2022/04/05 11:20:11;;;;;;;9.18;4.22;;;;;;;;;;5002583;28;20426;-83
2022/04/05 11:22:37;;;;;;;10.35;4.60;;;;;;;;;;5003440;28;20434;-83
2022/04/05 11:25:05;;;;;;;9.98;4.40;;;;;;;;;;5003837;28;20441;-83
2022/04/05 11:27:33;;;;;;;7.37;4.30;;;;;;;;;;5002812;28;20839;-83
2022/04/05 11:30:17;;;;;;;6.47;4.15;;;;;;;;;;5001532;28;20469;-83
2022/04/05 11:32:58;;;;;;;10.93;5.20;;;;;;;;;;5002654;28;20418;-80
2022/04/05 11:35:27;;;;;;;10.20;5.38;;;;;;;;;;5002408;28;20428;-83
2022/04/05 11:37:54;;;;;;;8.40;5.07;;;;;;;;;;5003131;28;20530;-83
2022/04/05 11:40:20;;;;;;;9.02;4.68;;;;;;;;;;5000187;28;20980;-83
2022/04/05 11:42:46;;;;;;;6.95;5.18;;;;;;;;;;5003083;28;20434;-83
2022/04/05 11:45:13;;;;;;;9.13;4.82;;;;;;;;;;5001491;28;20475;-83
2022/04/05 11:47:39;;;;;;;11.10;5.75;;;;;;;;;;5003879;28;20421;-83
2022/04/05 11:50:07;;;;;;;10.35;5.50;;;;;;;;;;5002807;28;20421;-83
2022/04/05 11:52:35;;;;;;;12.25;5.50;;;;;;;;;;5002495;28;20442;-83
2022/04/05 11:58:00;;;;;;;8.07;5.60;;;;;;;;;;5002130;28;20433;-82
2022/04/05 12:00:27;;;;;;;7.25;5.00;;;;;;;;;;5002485;28;20814;-83
2022/04/05 12:03:01;;;;;;;11.65;5.68;;;;;;;;;;5004057;28;20951;-83
2022/04/05 12:05:40;;;;;;;10.57;5.75;;;;;;;;;;5002115;28;20425;-83
2022/04/05 12:08:09;;;;;;;10.93;6.00;;;;;;;;;;5002403;28;20428;-82
2022/04/05 12:10:35;;;;;;;11.60;6.20;;;;;;;;;;5000382;28;20422;-83
2022/04/05 12:13:01;;;;;;;11.07;5.70;;;;;;;;;;5003694;28;20421;-83
2022/04/05 12:15:28;;;;;;;9.00;5.50;;;;;;;;;;5003648;28;20473;-83
2022/04/05 12:18:09;;;;;;;9.35;5.80;;;;;;;;;;5002490;28;20492;-83
2022/04/05 12:20:35;;;;;;;8.82;5.57;;;;;;;;;;5000569;28;20424;-83
2022/04/05 12:23:01;;;;;;;9.00;5.70;;;;;;;;;;5001962;28;20442;-83
2022/04/05 12:25:29;;;;;;;14.77;6.68;;;;;;;;;;5001073;28;20426;-83
2022/04/05 12:27:57;;;;;;;11.20;6.40;;;;;;;;;;5001926;28;21052;-83
2022/04/05 12:30:28;;;;;;;9.40;5.88;;;;;;;;;;5000721;28;20414;-83
2022/04/05 12:32:54;;;;;;;9.03;5.83;;;;;;;;;;5003657;28;20424;-83
2022/04/05 12:35:20;;;;;;;9.93;6.15;;;;;;;;;;5002152;28;20456;-83
2022/04/05 12:37:47;;;;;;;10.15;6.00;;;;;;;;;;5000797;28;20422;-83
2022/04/05 12:40:22;;;;;;;8.73;6.07;;;;;;;;;;4999837;28;20424;-82
2022/04/05 12:42:50;;;;;;;9.83;5.60;;;;;;;;;;4997292;28;20438;-83
2022/04/05 12:45:25;;;;;;;9.40;6.03;;;;;;;;;;5002275;28;20473;-83
2022/04/05 12:47:51;;;;;;;11.35;6.47;;;;;;;;;;5003719;28;20421;-83
2022/04/05 12:50:18;;;;;;;12.43;7.10;;;;;;;;;;5003238;28;20424;-83
2022/04/05 12:52:45;;;;;;;8.82;6.50;;;;;;;;;;5002948;28;20422;-81
2022/04/05 12:55:14;;;;;;;9.38;7.03;;;;;;;;;;4999831;28;20509;-83
2022/04/05 12:57:41;;;;;;;13.43;7.30;;;;;;;;;;5001906;28;20464;-83
2022/04/05 13:00:11;;;;;;;9.40;6.80;;;;;;;;;;5000696;28;20478;-83
2022/04/05 13:02:39;;;;;;;10.85;6.20;;;;;;;;;;5003060;28;20480;-83
2022/04/05 13:08:00;;;;;;;9.68;6.32;;;;;;;;;;5003135;28;20468;-81
2022/04/05 13:10:33;;;;;;;7.93;5.50;;;;;;;;;;5002377;28;20420;-83
2022/04/05 13:13:11;;;;;;;9.93;6.30;;;;;;;;;;5001053;28;20523;-83
2022/04/05 13:15:39;;;;;;;12.73;6.30;;;;;;;;;;5001771;28;20413;-83
2022/04/05 13:18:06;;;;;;;9.40;6.03;;;;;;;;;;5002276;28;20451;-82
2022/04/05 13:20:32;;;;;;;9.93;6.30;;;;;;;;;;5002291;28;20424;-82
2022/04/05 13:23:00;;;;;;;8.80;5.30;;;;;;;;;;5002366;28;20442;-83
2022/04/05 13:25:32;;;;;;;8.43;5.30;;;;;;;;;;4999226;28;20927;-83
2022/04/05 13:27:59;;;;;;;8.27;5.13;;;;;;;;;;4999292;28;20440;-81
2022/04/05 13:30:25;;;;;;;7.72;5.60;;;;;;;;;;4999411;28;20438;-83
2022/04/05 13:33:04;;;;;;;8.30;5.22;;;;;;;;;;5002914;28;20458;-83
2022/04/05 13:35:30;;;;;;;7.18;6.22;;;;;;;;;;5001283;28;20838;-83
2022/04/05 13:37:56;;;;;;;8.20;6.03;;;;;;;;;;5001249;28;20851;-83
2022/04/05 13:40:22;;;;;;;8.40;6.60;;;;;;;;;;5001313;28;20496;-83
2022/04/05 13:42:49;;;;;;;12.60;7.63;;;;;;;;;;4999860;28;20896;-83
2022/04/05 13:45:15;;;;;;;11.53;7.90;;;;;;;;;;4999561;28;20557;-83
2022/04/05 13:47:42;;;;;;;10.73;7.45;;;;;;;;;;4999660;28;20496;-83
2022/04/05 13:50:10;;;;;;;10.10;7.22;;;;;;;;;;5000088;28;20440;-82
2022/04/05 13:52:37;;;;;;;9.63;7.53;;;;;;;;;;4999056;28;20444;-83
2022/04/05 13:55:04;;;;;;;10.95;7.63;;;;;;;;;;5000132;28;20650;-82
2022/04/05 13:57:30;;;;;;;8.13;7.32;;;;;;;;;;5000914;28;20473;-83
2022/04/05 13:59:56;;;;;;;8.13;6.90;;;;;;;;;;4999737;28;21067;-83
2022/04/05 14:02:23;;;;;;;9.50;7.70;;;;;;;;;;4999180;28;20438;-83
2022/04/05 14:04:49;;;;;;;9.45;7.00;;;;;;;;;;4999983;28;20487;-82
2022/04/05 14:07:17;;;;;;;8.55;7.30;;;;;;;;;;5001547;28;20841;-83
2022/04/05 14:09:43;;;;;;;9.65;7.30;;;;;;;;;;4999296;28;20489;-83
2022/04/05 14:12:09;;;;;;;7.82;6.65;;;;;;;;;;5000468;28;20418;-83
2022/04/05 14:14:36;;;;;;;8.27;6.40;;;;;;;;;;4999790;28;20419;-83
2022/04/05 14:17:02;;;;;;;7.72;6.50;;;;;;;;;;5001316;28;20443;-83
2022/04/05 14:19:28;;;;;;;4.80;4.30;;;;;;;;;;5000349;28;20422;-82
2022/04/05 14:21:55;;;;;;;6.80;4.90;;;;;;;;;;5000304;28;20442;-83
2022/04/05 14:24:23;;;;;;;7.25;4.57;;;;;;;;;;4998734;28;20518;-83
2022/04/05 14:26:49;;;;;;;4.55;4.15;;;;;;;;;;4997858;28;21032;-83
2022/04/05 14:29:16;;;;;;;5.57;4.30;;;;;;;;;;4997288;28;20431;-83
2022/04/05 14:31:42;;;;;;;5.43;4.72;;;;;;;;;;5001024;28;20906;-83
2022/04/05 14:34:09;;;;;;;6.20;5.60;;;;;;;;;;5000104;28;20446;-83
2022/04/05 14:36:35;;;;;;;7.40;4.95;;;;;;;;;;5000750;28;20424;-83
2022/04/05 14:39:04;;;;;;;7.00;4.97;;;;;;;;;;4998933;28;20422;-83
2022/04/05 14:41:32;;;;;;;6.75;4.63;;;;;;;;;;4997477;28;20496;-83